Portada
METAR-TAF:

METAR-TAF

Aeroports :

Batam, Indonèsia

latitud: 01-07-15N, longitud: 104-07-07E, altitud: 38 m

Observació

L'informe es va fer fa 39 minuts, a les 20:30 UTC
Vent calma
Temperatura 25°C
Humitat 94%
Pressió 1011 hPa
Visibilitat: 6000 m

METAR: WIDD 162030Z AUTO 00000KT 6000NDV NCD 25/24 Q1011

Hora: 04:09 (21:09 UTC)

Pronòstic

L'informe es va fer fa 4 hores i 9 minuts, a les 17:00 UTC
Pronòstic vàlid del 16 a les 18 UTC al 17 a les 18 UTC
Vent 3 kt del Sud/Sud-Est
Visibilitat: 9000 m
Escasses núvols a una alçada de 1400 ft

TAF: WIDD 161700Z 1618/1718 15003KT 9000 FEW014

Observacions i pronòstics meteorològics de més de 4000 aeroports (METAR i TAF).

Les estacions disponibles són els punts grocs i vermells al mapa.

Posi el ratolí al punt desitjat per veure el nom de l'estació.

Feu clic per veure les observacions i els pronòstics meteorològics.

Per canviar el mapa: feu clic els botons verds amb una creu de color negre per apropar; al botó verd amb un guió per allunyar la imatge; o en les fletxes verdes per a mapes adjacents.


METAR-TAF: